Time;durP1;ratioP1;P1;durP2;ratioP2;P2;SDS_P1;SDS_P2;PMS_P1;PMS_P2;Temp;Humidity;BMP_temperature;BMP_pressure;BME280_temperature;BME280_humidity;BME280_pressure;Samples;Min_cycle;Max_cycle;Signal;HPM_P1;HPM_P2
2023/03/02 00:00:40;;;;;;;8.80;3.45;;;;;;;4.33;42.33;102394.72;4912899;28;114865;-68
2023/03/02 00:03:09;;;;;;;8.55;3.70;;;;;;;4.33;42.38;102394.72;4923587;28;114549;-68
2023/03/02 00:05:39;;;;;;;7.43;3.38;;;;;;;4.33;42.57;102404.34;4911725;28;125197;-68
2023/03/02 00:08:08;;;;;;;7.22;3.67;;;;;;;4.34;42.15;102409.63;4912901;28;124678;-71
2023/03/02 00:10:36;;;;;;;8.57;3.60;;;;;;;4.35;42.42;102406.16;4912659;28;114556;-68
2023/03/02 00:13:03;;;;;;;7.40;3.55;;;;;;;4.37;42.38;102399.16;4910629;28;113529;-70
2023/03/02 00:15:31;;;;;;;8.07;3.80;;;;;;;4.40;42.47;102407.03;4923176;28;124317;-68
2023/03/02 00:17:58;;;;;;;7.15;3.70;;;;;;;4.41;42.61;102400.91;4912319;28;123824;-69
2023/03/02 00:20:25;;;;;;;6.93;3.65;;;;;;;4.43;42.36;102407.06;4912717;28;114929;-69
2023/03/02 00:22:52;;;;;;;8.65;3.95;;;;;;;4.43;42.27;102399.19;4932744;28;114942;-69
2023/03/02 00:25:19;;;;;;;8.65;4.43;;;;;;;4.43;42.55;102399.19;4916907;28;123830;-68
2023/03/02 00:27:46;;;;;;;8.98;3.28;;;;;;;4.41;42.36;102395.69;4912202;28;124467;-68
2023/03/02 00:30:14;;;;;;;8.30;4.28;;;;;;;4.40;42.54;102391.28;4914193;28;114961;-68
2023/03/02 00:32:41;;;;;;;7.25;3.78;;;;;;;4.39;42.70;102397.41;4912070;28;113704;-68
2023/03/02 00:35:09;;;;;;;7.60;3.78;;;;;;;4.39;42.59;102397.41;4913512;28;125252;-69
2023/03/02 00:37:37;;;;;;;7.95;4.13;;;;;;;4.40;42.51;102399.16;4911460;28;124716;-68
2023/03/02 00:40:06;;;;;;;7.43;4.28;;;;;;;4.40;42.55;102393.91;4912167;28;114782;-69
2023/03/02 00:42:35;;;;;;;7.82;3.80;;;;;;;4.40;42.77;102393.91;4916479;28;115476;-69
2023/03/02 00:45:03;;;;;;;8.18;4.30;;;;;;;4.39;42.84;102392.16;4939437;28;124607;-68
2023/03/02 00:47:35;;;;;;;8.73;3.95;;;;;;;4.38;42.75;102390.41;4915955;28;122970;-69
2023/03/02 00:50:04;;;;;;;7.75;3.33;;;;;;;4.36;42.58;102392.16;4937436;28;113932;-69
2023/03/02 00:52:33;;;;;;;6.82;3.78;;;;;;;4.35;42.80;102385.16;4914936;28;96788;-69
2023/03/02 00:55:00;;;;;;;7.93;3.70;;;;;;;4.33;42.81;102381.63;4927417;28;124354;-69
2023/03/02 00:57:27;;;;;;;8.68;4.18;;;;;;;4.32;42.87;102384.25;4930631;28;123754;-68
2023/03/02 00:59:55;;;;;;;11.15;4.05;;;;;;;4.30;42.93;102386.88;4919008;28;114501;-69
2023/03/02 01:02:37;;;;;;;8.85;4.20;;;;;;;4.29;42.82;102385.09;4920118;28;113906;-70
2023/03/02 01:05:05;;;;;;;8.45;3.90;;;;;;;4.26;42.93;102377.22;4940803;28;123604;-69
2023/03/02 01:07:32;;;;;;;9.48;3.83;;;;;;;4.25;43.01;102385.97;4922696;28;123794;-68
2023/03/02 01:09:59;;;;;;;9.23;3.67;;;;;;;4.23;43.03;102379.81;4912884;28;114383;-71
2023/03/02 01:12:26;;;;;;;8.35;4.07;;;;;;;4.23;43.04;102385.06;4910997;28;113982;-68
2023/03/02 01:14:53;;;;;;;7.03;4.05;;;;;;;4.23;42.89;102390.31;4912663;28;124450;-69
2023/03/02 01:17:21;;;;;;;10.18;4.55;;;;;;;4.22;42.92;102383.31;4922377;28;124697;-68
2023/03/02 01:19:48;;;;;;;8.05;4.13;;;;;;;4.20;43.01;102382.41;4912901;28;113145;-68
2023/03/02 01:22:16;;;;;;;9.80;4.65;;;;;;;4.19;42.97;102393.78;4921880;28;112752;-68
2023/03/02 01:24:43;;;;;;;8.35;4.43;;;;;;;4.16;43.10;102388.53;4929698;28;124625;-69
2023/03/02 01:27:10;;;;;;;7.97;4.28;;;;;;;4.14;43.17;102385.00;4927973;28;124227;-69
2023/03/02 01:29:38;;;;;;;9.55;4.95;;;;;;;4.13;43.19;102385.91;4937973;28;115730;-68
2023/03/02 01:32:05;;;;;;;10.27;4.80;;;;;;;4.10;43.08;102382.34;4927875;28;114755;-70
2023/03/02 01:34:32;;;;;;;8.80;4.97;;;;;;;4.09;43.40;102385.88;4928683;28;124088;-69
2023/03/02 01:36:59;;;;;;;9.40;4.85;;;;;;;4.07;43.33;102379.75;4927841;28;124203;-69
2023/03/02 01:39:26;;;;;;;10.15;5.30;;;;;;;4.06;43.56;102388.44;4927703;28;113796;-68
2023/03/02 01:41:53;;;;;;;11.40;5.63;;;;;;;4.04;43.54;102369.22;4927676;28;112378;-69
2023/03/02 01:44:36;;;;;;;12.50;5.90;;;;;;;4.00;43.72;102377.94;4926431;28;123581;-69
2023/03/02 01:47:12;;;;;;;15.15;5.85;;;;;;;3.98;43.74;102374.44;4925925;28;123486;-68
2023/03/02 01:49:54;;;;;;;14.93;6.28;;;;;;;3.97;43.87;102377.91;4926923;28;113558;-68
2023/03/02 01:52:23;;;;;;;11.93;5.82;;;;;;;3.96;43.70;102376.16;4911696;28;113249;-69
2023/03/02 01:54:54;;;;;;;13.32;6.15;;;;;;;3.94;44.01;102372.66;4931331;28;123332;-68
2023/03/02 01:57:26;;;;;;;17.20;6.40;;;;;;;3.93;44.01;102370.03;4921298;28;122763;-68
2023/03/02 02:00:00;;;;;;;14.15;6.57;;;;;;;3.92;44.31;102374.41;4932484;28;113810;-68
2023/03/02 02:02:27;;;;;;;12.68;6.05;;;;;;;3.90;44.27;102365.66;4931102;28;114117;-69
2023/03/02 02:04:55;;;;;;;16.48;7.35;;;;;;;3.88;44.31;102364.72;4916526;28;124212;-68
2023/03/02 02:07:23;;;;;;;18.40;7.57;;;;;;;3.86;44.27;102369.09;4915906;28;123284;-68
2023/03/02 02:09:51;;;;;;;15.60;7.70;;;;;;;3.84;44.48;102365.56;4916183;28;113391;-69
2023/03/02 02:12:21;;;;;;;18.67;7.88;;;;;;;3.80;44.66;102363.81;4916174;28;113570;-68
2023/03/02 02:14:49;;;;;;;20.80;8.85;;;;;;;3.78;44.95;102355.06;4909091;28;126139;-68
2023/03/02 02:17:18;;;;;;;16.95;8.68;;;;;;;3.75;44.71;102355.03;4929981;28;123388;-68
2023/03/02 02:20:06;;;;;;;23.08;9.43;;;;;;;3.73;45.04;102354.13;4944394;28;115637;-69
2023/03/02 02:23:02;;;;;;;21.75;9.50;;;;;;;3.69;44.92;102351.50;4942436;28;114174;-69
2023/03/02 02:25:44;;;;;;;23.23;10.27;;;;;;;3.67;45.29;102352.34;4939685;28;124291;-69
2023/03/02 02:28:29;;;;;;;25.08;9.98;;;;;;;3.65;45.00;102344.47;4932239;28;123162;-69
2023/03/02 02:31:49;;;;;;;26.13;10.23;;;;;;;3.65;45.29;102344.47;4945632;28;113282;-69
2023/03/02 02:34:22;;;;;;;26.60;11.50;;;;;;;3.64;45.33;102342.72;4869775;28;113303;-68
2023/03/02 02:36:55;;;;;;;27.97;11.70;;;;;;;3.63;45.61;102335.72;4927369;28;123870;-68
2023/03/02 02:39:28;;;;;;;28.35;11.38;;;;;;;3.63;45.79;102335.72;4926511;28;122991;-71
2023/03/02 02:41:59;;;;;;;29.23;12.98;;;;;;;3.62;46.03;102333.97;4928261;28;114398;-69
2023/03/02 02:44:28;;;;;;;27.42;11.52;;;;;;;3.62;46.07;102333.97;4917314;28;113352;-69
2023/03/02 02:46:55;;;;;;;27.25;12.00;;;;;;;3.64;46.27;102331.38;4915315;28;123290;-69
2023/03/02 02:49:29;;;;;;;28.17;11.20;;;;;;;3.65;46.29;102338.34;4937825;28;123415;-69
2023/03/02 02:51:57;;;;;;;27.65;11.07;;;;;;;3.66;46.31;102341.00;4929344;28;114080;-69
2023/03/02 02:54:26;;;;;;;26.40;11.48;;;;;;;3.67;46.14;102340.16;4931057;28;113338;-69
2023/03/02 02:56:54;;;;;;;27.60;11.52;;;;;;;3.69;46.12;102340.13;4944715;28;123500;-69
2023/03/02 02:59:27;;;;;;;29.42;11.68;;;;;;;3.69;46.06;102338.41;4934028;28;123469;-69
2023/03/02 03:01:58;;;;;;;28.67;11.52;;;;;;;3.69;46.22;102341.03;4917908;28;113619;-69
2023/03/02 03:04:30;;;;;;;26.02;11.30;;;;;;;3.69;46.19;102335.78;4930799;28;113323;-69
2023/03/02 03:07:01;;;;;;;31.23;13.18;;;;;;;3.70;46.24;102332.28;4925419;28;123317;-69
2023/03/02 03:09:29;;;;;;;29.63;12.30;;;;;;;3.70;46.21;102332.28;4918282;28;125298;-69
2023/03/02 03:12:01;;;;;;;29.90;12.43;;;;;;;3.72;46.52;102331.44;4913111;28;115088;-69
2023/03/02 03:14:38;;;;;;;29.73;12.75;;;;;;;3.72;46.62;102334.06;4911984;28;114961;-69
2023/03/02 03:17:11;;;;;;;28.48;12.43;;;;;;;3.72;46.88;102326.19;4921201;28;123543;-69
2023/03/02 03:19:45;;;;;;;31.98;13.50;;;;;;;3.72;46.68;102334.06;4899295;28;123848;-69
2023/03/02 03:22:14;;;;;;;32.10;13.35;;;;;;;3.72;46.94;102328.81;4913543;28;113926;-69
2023/03/02 03:24:44;;;;;;;31.73;12.40;;;;;;;3.73;46.73;102325.31;4914157;28;114944;-69
2023/03/02 03:27:14;;;;;;;34.88;14.02;;;;;;;3.73;47.19;102326.22;4930403;28;124217;-69
2023/03/02 03:29:46;;;;;;;35.40;13.85;;;;;;;3.72;47.61;102326.19;4930902;28;123344;-69
2023/03/02 03:32:17;;;;;;;32.20;13.05;;;;;;;3.72;47.53;102323.56;4934259;28;113524;-70
2023/03/02 03:34:45;;;;;;;35.05;13.93;;;;;;;3.72;47.81;102320.97;4929854;28;113266;-69
2023/03/02 03:37:22;;;;;;;34.08;13.75;;;;;;;3.70;47.65;102313.94;4929141;28;123474;-69
2023/03/02 03:39:49;;;;;;;31.25;13.88;;;;;;;3.72;47.60;102318.34;4929584;28;123367;-69
2023/03/02 03:42:18;;;;;;;33.88;13.13;;;;;;;3.72;47.84;102323.56;4916653;28;113737;-69
2023/03/02 03:44:46;;;;;;;34.95;12.85;;;;;;;3.72;47.97;102310.47;4914030;28;113626;-69
2023/03/02 03:47:13;;;;;;;34.15;12.55;;;;;;;3.72;48.04;102324.44;4929620;28;124068;-69
2023/03/02 03:49:41;;;;;;;34.65;14.35;;;;;;;3.72;48.25;102315.72;4913890;28;123115;-70
2023/03/02 03:52:08;;;;;;;35.65;13.85;;;;;;;3.69;48.23;102314.81;4929650;28;114025;-69
2023/03/02 03:54:35;;;;;;;33.28;13.90;;;;;;;3.68;48.19;102323.53;4931006;28;114312;-69
2023/03/02 03:57:02;;;;;;;31.95;12.88;;;;;;;3.67;48.28;102321.81;4928208;28;123262;-69
2023/03/02 03:59:29;;;;;;;31.35;12.57;;;;;;;3.65;48.08;102318.25;4930276;28;124097;-69
2023/03/02 04:02:00;;;;;;;29.80;12.68;;;;;;;3.64;48.21;102321.78;4927933;28;114780;-70
2023/03/02 04:04:33;;;;;;;30.23;12.32;;;;;;;3.65;48.11;102328.75;4929388;28;114694;-69
2023/03/02 04:07:12;;;;;;;30.00;11.85;;;;;;;3.64;48.28;102316.53;4929225;28;123593;-69
2023/03/02 04:09:40;;;;;;;36.97;13.48;;;;;;;3.62;48.33;102318.25;4913474;28;123556;-69
2023/03/02 04:12:10;;;;;;;32.90;13.00;;;;;;;3.63;48.16;102319.13;4929686;28;114151;-69
2023/03/02 04:14:40;;;;;;;31.27;11.90;;;;;;;3.62;48.38;102323.50;4928573;28;113665;-69
2023/03/02 04:17:07;;;;;;;34.08;13.25;;;;;;;3.62;48.32;102318.25;4929812;28;123701;-69
2023/03/02 04:19:39;;;;;;;33.45;12.85;;;;;;;3.61;48.16;102321.72;4927791;28;124458;-69
2023/03/02 04:22:08;;;;;;;31.02;12.60;;;;;;;3.59;48.14;102320.84;4929071;28;113474;-68
2023/03/02 04:24:35;;;;;;;29.98;12.75;;;;;;;3.60;48.55;102324.34;4913377;28;113280;-70
2023/03/02 04:27:03;;;;;;;34.35;12.90;;;;;;;3.59;48.56;102323.47;4940676;28;123270;-70
2023/03/02 04:29:32;;;;;;;32.10;12.85;;;;;;;3.58;48.69;102326.97;4913334;28;125239;-68
2023/03/02 04:32:01;;;;;;;37.78;14.30;;;;;;;3.59;48.71;102325.22;4903910;28;113338;-69
2023/03/02 04:34:30;;;;;;;33.38;13.38;;;;;;;3.58;48.69;102328.69;4917522;28;114000;-69
2023/03/02 04:36:58;;;;;;;32.78;13.32;;;;;;;3.58;48.63;102324.34;4917997;28;124258;-69
2023/03/02 04:39:26;;;;;;;41.65;14.35;;;;;;;3.58;48.83;102326.06;4913965;28;124451;-69
2023/03/02 04:41:53;;;;;;;34.40;13.73;;;;;;;3.57;48.99;102330.44;4911541;28;113696;-69
2023/03/02 04:44:20;;;;;;;32.47;13.32;;;;;;;3.57;49.03;102330.44;4919060;28;113645;-69
2023/03/02 04:46:48;;;;;;;37.33;13.90;;;;;;;3.55;49.04;102332.16;4928433;28;123503;-69
2023/03/02 04:49:17;;;;;;;35.42;13.13;;;;;;;3.55;48.93;102331.31;4914252;28;124214;-69
2023/03/02 04:51:47;;;;;;;39.55;14.00;;;;;;;3.54;49.05;102335.63;4921731;28;115473;-69
2023/03/02 04:54:20;;;;;;;32.50;13.27;;;;;;;3.53;48.95;102336.53;4910451;28;114161;-69
2023/03/02 04:56:47;;;;;;;36.65;14.77;;;;;;;3.51;48.97;102325.16;4911117;28;125181;-68
2023/03/02 04:59:15;;;;;;;32.72;13.68;;;;;;;3.53;49.12;102330.41;4910208;28;123140;-69
2023/03/02 05:01:43;;;;;;;36.33;14.02;;;;;;;3.50;49.10;102323.38;4910669;28;113531;-69
2023/03/02 05:04:11;;;;;;;36.67;13.77;;;;;;;3.49;49.27;102321.66;4912015;28;113553;-69
2023/03/02 05:06:38;;;;;;;39.20;13.77;;;;;;;3.45;49.07;102325.13;4912785;28;123775;-69
2023/03/02 05:09:06;;;;;;;42.20;15.18;;;;;;;3.44;49.26;102331.22;4912322;28;123933;-69
2023/03/02 05:11:33;;;;;;;39.10;15.07;;;;;;;3.43;49.46;102326.84;4912693;28;114141;-69
2023/03/02 05:14:03;;;;;;;37.55;14.32;;;;;;;3.41;49.21;102323.31;4909748;28;114284;-69
2023/03/02 05:16:33;;;;;;;39.58;14.50;;;;;;;3.40;49.18;102322.44;4922587;28;124270;-69
2023/03/02 05:19:02;;;;;;;42.50;15.32;;;;;;;3.39;49.40;102325.03;4910722;28;123267;-69
2023/03/02 05:21:29;;;;;;;40.92;14.48;;;;;;;3.37;49.57;102327.69;4924109;28;114079;-69
2023/03/02 05:23:57;;;;;;;39.42;14.70;;;;;;;3.35;49.22;102323.25;4927080;28;113931;-69
2023/03/02 05:26:24;;;;;;;40.05;14.23;;;;;;;3.36;49.35;102330.28;4911347;28;124179;-69
2023/03/02 05:28:51;;;;;;;44.60;16.27;;;;;;;3.33;49.16;102325.00;4923514;28;125373;-69
2023/03/02 05:31:36;;;;;;;39.10;14.85;;;;;;;3.30;49.48;102324.09;4911915;28;114419;-69
2023/03/02 05:34:06;;;;;;;43.70;15.05;;;;;;;3.28;49.57;102328.47;4923955;28;114645;-68
2023/03/02 05:36:34;;;;;;;42.35;15.20;;;;;;;3.25;49.55;102328.41;4921518;28;124009;-69
2023/03/02 05:39:02;;;;;;;44.92;16.20;;;;;;;3.24;49.59;102324.06;4911297;28;123883;-69
2023/03/02 05:41:29;;;;;;;43.25;15.50;;;;;;;3.23;49.57;102324.91;4910990;28;114916;-69
2023/03/02 05:43:57;;;;;;;43.55;14.60;;;;;;;3.22;49.70;102333.66;4925890;28;115449;-69
2023/03/02 05:46:24;;;;;;;45.08;15.10;;;;;;;3.22;49.81;102322.28;4920978;28;125282;-69
2023/03/02 05:48:51;;;;;;;40.53;15.23;;;;;;;3.21;49.86;102321.41;4929846;28;124691;-69
2023/03/02 05:51:19;;;;;;;38.47;15.18;;;;;;;3.21;49.72;102321.41;4929292;28;113813;-69
2023/03/02 05:53:46;;;;;;;41.78;15.35;;;;;;;3.19;49.52;102323.13;4928189;28;114239;-69
2023/03/02 05:56:13;;;;;;;37.67;13.88;;;;;;;3.18;49.83;102320.50;4930187;28;123953;-69
2023/03/02 05:58:40;;;;;;;37.33;13.27;;;;;;;3.16;49.82;102312.63;4928436;28;122908;-69
2023/03/02 06:01:10;;;;;;;39.00;14.05;;;;;;;3.15;49.82;102316.13;4928700;28;113912;-69
2023/03/02 06:03:42;;;;;;;39.20;13.70;;;;;;;3.13;49.80;102320.47;4928853;28;113851;-69
2023/03/02 06:06:12;;;;;;;43.45;15.07;;;;;;;3.11;49.94;102309.09;4931763;28;124238;-68
2023/03/02 06:08:41;;;;;;;38.13;13.70;;;;;;;3.10;49.75;102317.81;4930159;28;123887;-69
2023/03/02 06:11:09;;;;;;;37.95;13.23;;;;;;;3.08;49.78;102319.53;4928139;28;113945;-68
2023/03/02 06:13:36;;;;;;;38.22;13.00;;;;;;;3.05;49.81;102319.50;4926785;28;114103;-68
2023/03/02 06:16:04;;;;;;;40.17;13.88;;;;;;;3.04;49.77;102323.00;4898269;28;122972;-69
2023/03/02 06:18:32;;;;;;;38.33;13.45;;;;;;;3.03;49.95;102315.97;4925651;28;123858;-68
2023/03/02 06:20:59;;;;;;;36.28;13.48;;;;;;;3.03;49.80;102321.22;4928271;28;115056;-68
2023/03/02 06:23:26;;;;;;;35.75;12.65;;;;;;;3.02;49.98;102324.72;4928191;28;114088;-69
2023/03/02 06:25:53;;;;;;;42.97;16.63;;;;;;;3.02;50.00;102335.19;4915758;28;124196;-68
2023/03/02 06:28:20;;;;;;;45.67;16.67;;;;;;;3.02;50.10;102335.19;4909939;28;123925;-68
2023/03/02 06:30:48;;;;;;;44.08;16.30;;;;;;;3.02;50.22;102329.94;4922777;28;115791;-69
2023/03/02 06:33:20;;;;;;;39.92;16.30;;;;;;;3.01;50.51;102334.28;4927543;28;114238;-69
2023/03/02 06:35:47;;;;;;;43.97;16.60;;;;;;;3.01;50.21;102326.44;4927453;28;123399;-68
2023/03/02 06:38:15;;;;;;;45.08;16.95;;;;;;;3.00;50.30;102332.53;4918420;28;124261;-69
2023/03/02 06:40:43;;;;;;;44.45;16.60;;;;;;;2.99;50.44;102330.78;4929187;28;113866;-69
2023/03/02 06:43:10;;;;;;;40.83;15.48;;;;;;;2.99;50.28;102335.13;4932395;28;113150;-68
2023/03/02 06:45:37;;;;;;;43.58;17.27;;;;;;;2.98;50.42;102333.41;4930814;28;123653;-69
2023/03/02 06:48:05;;;;;;;41.58;16.92;;;;;;;2.98;50.41;102338.63;4932641;28;123846;-69
2023/03/02 06:50:33;;;;;;;39.33;15.25;;;;;;;2.99;50.58;102337.75;4928058;28;114664;-68
2023/03/02 06:53:00;;;;;;;46.05;17.13;;;;;;;2.98;50.40;102339.50;4912984;28;114333;-69
2023/03/02 06:55:27;;;;;;;42.67;16.45;;;;;;;2.99;50.67;102337.75;4916224;28;123771;-69
2023/03/02 06:57:54;;;;;;;40.67;16.67;;;;;;;3.00;50.77;102342.16;4932436;28;124177;-68
2023/03/02 07:00:26;;;;;;;45.35;18.08;;;;;;;3.02;50.81;102340.41;4929578;28;113956;-69
2023/03/02 07:02:55;;;;;;;45.67;17.80;;;;;;;3.04;51.00;102343.94;4924882;28;113803;-69
2023/03/02 07:05:23;;;;;;;43.38;16.98;;;;;;;3.05;51.18;102341.34;4922430;28;124494;-69
2023/03/02 07:07:50;;;;;;;43.33;17.67;;;;;;;3.09;51.47;102347.47;4903393;28;122047;-69
2023/03/02 07:10:17;;;;;;;43.30;16.67;;;;;;;3.13;51.25;102349.25;4921073;28;114236;-69
2023/03/02 07:12:45;;;;;;;46.50;17.80;;;;;;;3.18;51.53;102352.78;4927016;28;114491;-69
2023/03/02 07:15:13;;;;;;;45.53;17.70;;;;;;;3.24;51.65;102352.88;4918194;28;125101;-68
2023/03/02 07:17:42;;;;;;;43.63;17.45;;;;;;;3.28;51.56;102349.41;4916767;28;124035;-69
2023/03/02 07:20:12;;;;;;;44.67;17.08;;;;;;;3.36;51.64;102359.09;4915796;28;115024;-68
2023/03/02 07:22:40;;;;;;;43.47;17.73;;;;;;;3.41;51.84;102349.50;4921019;28;114785;-67
2023/03/02 07:25:08;;;;;;;46.58;18.00;;;;;;;3.45;51.76;102351.31;4931408;28;124043;-68
2023/03/02 07:27:36;;;;;;;42.15;15.80;;;;;;;3.47;51.79;102344.34;4931630;28;125177;-69
2023/03/02 07:30:04;;;;;;;40.15;16.60;;;;;;;3.50;51.78;102350.47;4931832;28;114663;-68
2023/03/02 07:32:32;;;;;;;42.22;15.88;;;;;;;3.54;51.84;102340.88;4931568;28;114131;-69
2023/03/02 07:34:59;;;;;;;46.13;17.45;;;;;;;3.57;51.76;102347.91;4929319;28;124066;-68
2023/03/02 07:37:26;;;;;;;39.45;15.50;;;;;;;3.59;51.88;102347.03;4930440;28;124113;-69
2023/03/02 07:39:53;;;;;;;40.78;15.32;;;;;;;3.66;51.62;102350.59;4929846;28;114591;-69
2023/03/02 07:42:21;;;;;;;41.63;15.63;;;;;;;3.72;51.79;102344.53;4917177;28;114419;-69
2023/03/02 07:44:53;;;;;;;39.20;15.48;;;;;;;3.76;51.75;102346.31;4909506;28;123510;-68
2023/03/02 07:47:20;;;;;;;39.45;15.55;;;;;;;3.80;51.86;102348.06;4921909;28;124267;-68
2023/03/02 07:49:48;;;;;;;36.35;14.60;;;;;;;3.84;51.63;102355.09;4919707;28;114294;-69
2023/03/02 07:52:15;;;;;;;35.67;15.25;;;;;;;3.89;51.60;102345.53;4929716;28;115118;-69
2023/03/02 07:54:42;;;;;;;37.58;15.05;;;;;;;3.95;51.58;102350.81;4926319;28;122732;-68
2023/03/02 07:57:09;;;;;;;35.30;14.38;;;;;;;4.00;51.59;102351.72;4922319;28;123385;-69
2023/03/02 07:59:36;;;;;;;36.03;14.48;;;;;;;4.05;51.49;102350.00;4918621;28;113978;-68
2023/03/02 08:02:03;;;;;;;37.97;14.88;;;;;;;4.10;51.60;102348.28;4923135;28;114655;-70
2023/03/02 08:04:33;;;;;;;37.35;14.27;;;;;;;4.18;51.76;102355.31;4906710;28;123373;-70
2023/03/02 08:07:00;;;;;;;41.33;15.73;;;;;;;4.22;51.38;102357.09;4921256;28;125895;-69
2023/03/02 08:09:27;;;;;;;34.08;14.30;;;;;;;4.27;51.43;102365.84;4916164;28;115001;-70
2023/03/02 08:11:54;;;;;;;35.20;14.40;;;;;;;4.31;51.64;102357.13;4913785;28;114198;-70
2023/03/02 08:14:22;;;;;;;34.28;14.23;;;;;;;4.37;51.68;102357.19;4912201;28;124756;-70
2023/03/02 08:16:51;;;;;;;37.03;15.18;;;;;;;4.41;51.58;102353.72;4913728;28;122272;-70
2023/03/02 08:19:19;;;;;;;36.08;15.02;;;;;;;4.45;51.60;102344.97;4915258;28;113875;-70
2023/03/02 08:21:46;;;;;;;36.58;14.52;;;;;;;4.50;51.50;102350.22;4913761;28;114142;-70
2023/03/02 08:24:13;;;;;;;34.70;14.75;;;;;;;4.55;51.45;102353.75;4920200;28;124130;-69
2023/03/02 08:26:40;;;;;;;34.65;14.15;;;;;;;4.59;51.68;102352.91;4925457;28;124068;-70
2023/03/02 08:29:08;;;;;;;35.20;14.35;;;;;;;4.64;51.79;102356.44;4913233;28;113563;-69
2023/03/02 08:31:35;;;;;;;33.55;13.80;;;;;;;4.69;51.73;102356.47;4921871;28;114192;-70
2023/03/02 08:34:02;;;;;;;32.38;13.55;;;;;;;4.75;51.61;102353.84;4922195;28;123939;-70
2023/03/02 08:36:30;;;;;;;34.72;13.40;;;;;;;4.82;51.76;102355.63;4928270;28;124026;-70
2023/03/02 08:38:57;;;;;;;32.95;13.80;;;;;;;4.91;51.45;102353.88;4925497;28;114441;-70
2023/03/02 08:41:25;;;;;;;31.48;12.93;;;;;;;4.98;51.54;102350.41;4928584;28;113727;-70
2023/03/02 08:43:53;;;;;;;32.65;12.88;;;;;;;5.06;51.36;102353.94;4927298;28;123352;-70
2023/03/02 08:46:20;;;;;;;30.02;12.73;;;;;;;5.12;51.21;102346.06;4913334;28;123380;-70
2023/03/02 08:48:48;;;;;;;26.23;11.98;;;;;;;5.21;51.07;102348.69;4927914;28;114084;-70
2023/03/02 08:51:19;;;;;;;28.45;12.05;;;;;;;5.31;51.11;102338.22;4928421;28;113557;-70
2023/03/02 08:53:49;;;;;;;27.75;11.68;;;;;;;5.40;50.90;102338.22;4924911;28;124871;-70
2023/03/02 08:56:37;;;;;;;27.58;11.35;;;;;;;5.50;51.04;102340.00;4924841;28;124725;-70
2023/03/02 08:59:11;;;;;;;24.75;11.77;;;;;;;5.59;50.75;102334.69;4922091;28;116395;-70
2023/03/02 09:01:39;;;;;;;25.02;11.05;;;;;;;5.69;50.79;102329.44;4921033;28;114702;-70
2023/03/02 09:04:08;;;;;;;21.30;9.68;;;;;;;5.78;50.32;102313.66;4925643;28;123533;-70
2023/03/02 09:06:38;;;;;;;23.10;10.68;;;;;;;5.87;50.20;102334.69;4906445;28;125754;-70
2023/03/02 09:09:07;;;;;;;21.73;10.00;;;;;;;5.97;50.19;102331.22;4909848;28;113272;-69
2023/03/02 09:11:34;;;;;;;22.70;9.45;;;;;;;6.09;49.77;102334.69;4904808;28;113127;-70
2023/03/02 09:14:02;;;;;;;20.20;9.32;;;;;;;6.21;49.73;102334.66;4920311;28;123678;-70
2023/03/02 09:16:29;;;;;;;22.65;10.35;;;;;;;6.31;49.56;102335.50;4920010;28;124186;-70
2023/03/02 09:18:57;;;;;;;20.73;10.23;;;;;;;6.39;49.06;102334.59;4914006;28;114204;-70
2023/03/02 09:21:24;;;;;;;21.35;11.30;;;;;;;6.48;48.96;102333.69;4922760;28;113745;-70
2023/03/02 09:23:54;;;;;;;23.70;10.10;;;;;;;6.54;48.54;102335.44;4915020;28;125462;-71
2023/03/02 09:26:21;;;;;;;21.08;9.52;;;;;;;6.61;48.33;102334.50;4919578;28;124560;-70
2023/03/02 09:28:48;;;;;;;21.10;9.55;;;;;;;6.68;48.18;102336.22;4919229;28;114902;-70
2023/03/02 09:31:15;;;;;;;19.30;9.20;;;;;;;6.76;48.01;102331.81;4915331;28;114114;-70
2023/03/02 09:33:43;;;;;;;21.38;10.25;;;;;;;6.85;47.60;102327.38;4911866;28;123892;-70
2023/03/02 09:36:17;;;;;;;22.25;9.95;;;;;;;6.91;47.30;102330.84;4923266;28;123536;-70
2023/03/02 09:38:44;;;;;;;20.30;9.20;;;;;;;6.96;47.50;102325.56;4914958;28;113952;-71
2023/03/02 09:41:20;;;;;;;17.08;9.05;;;;;;;7.03;47.29;102335.16;4921135;28;113412;-71
2023/03/02 09:44:15;;;;;;;18.42;9.40;;;;;;;7.09;46.80;102332.50;4904618;28;124350;-70
2023/03/02 09:46:49;;;;;;;18.85;9.75;;;;;;;7.15;46.82;102332.44;4922497;28;124494;-72
2023/03/02 09:49:24;;;;;;;19.85;10.02;;;;;;;7.22;46.98;102325.38;4916325;28;114032;-70
2023/03/02 09:52:10;;;;;;;19.38;9.73;;;;;;;7.32;46.77;102324.41;4922849;28;113872;-70
2023/03/02 09:54:38;;;;;;;;;;;;;;;7.42;46.69;102319.94;4911680;28;124006;-70
2023/03/02 09:57:25;;;;;;;18.42;9.00;;;;;;;7.51;46.80;102325.13;4913866;28;124249;-70
2023/03/02 10:00:05;;;;;;;18.42;9.50;;;;;;;7.59;46.08;102328.59;4913019;28;114557;-71
2023/03/02 10:02:52;;;;;;;19.35;9.80;;;;;;;7.66;46.11;102323.28;4911511;28;114223;-70
2023/03/02 10:05:27;;;;;;;22.60;10.27;;;;;;;7.73;46.07;102330.25;4912431;28;123966;-71
2023/03/02 10:07:54;;;;;;;20.05;8.63;;;;;;;7.82;46.06;102327.53;4912472;28;123879;-70
2023/03/02 10:10:27;;;;;;;20.65;9.38;;;;;;;7.90;46.09;102328.31;4912941;28;114324;-71
2023/03/02 10:13:05;;;;;;;21.05;10.32;;;;;;;8.02;46.55;102321.16;4911842;28;113060;-71
2023/03/02 10:16:17;;;;;;;20.17;9.70;;;;;;;8.15;46.47;102328.03;4923058;28;123865;-70
2023/03/02 10:18:57;;;;;;;19.90;10.15;;;;;;;8.25;46.39;102319.16;4912502;28;124009;-70
2023/03/02 10:21:31;;;;;;;23.40;11.13;;;;;;;8.35;46.79;102320.78;4916254;28;114322;-71
2023/03/02 10:24:08;;;;;;;22.23;10.27;;;;;;;8.44;46.52;102324.22;4927496;28;114187;-70
2023/03/02 10:26:41;;;;;;;23.15;10.95;;;;;;;8.53;46.65;102322.38;4931066;28;124090;-71
2023/03/02 10:29:42;;;;;;;19.60;9.93;;;;;;;8.59;46.29;102313.50;4931534;28;123864;-71
2023/03/02 10:32:20;;;;;;;19.10;10.82;;;;;;;8.69;46.00;102314.25;4924770;28;114386;-70
2023/03/02 10:34:50;;;;;;;20.40;9.98;;;;;;;8.74;45.80;102318.56;4920954;28;114047;-70
2023/03/02 10:37:21;;;;;;;22.05;10.63;;;;;;;8.82;46.01;102314.94;4919808;28;125125;-70
2023/03/02 10:39:48;;;;;;;17.67;9.38;;;;;;;8.90;45.55;102318.34;4929342;28;122846;-70
2023/03/02 10:42:21;;;;;;;16.30;8.82;;;;;;;8.96;45.27;102312.97;4914687;28;114199;-71
2023/03/02 10:44:55;;;;;;;16.13;8.82;;;;;;;9.02;44.54;102307.56;4915228;28;115472;-70
2023/03/02 10:47:26;;;;;;;15.80;8.65;;;;;;;9.04;43.16;102304.91;4925733;28;123943;-71
2023/03/02 10:49:55;;;;;;;15.00;8.13;;;;;;;9.04;43.48;102295.25;4929280;28;122996;-71
2023/03/02 10:52:27;;;;;;;14.93;8.32;;;;;;;9.09;43.57;102303.94;4915691;28;114882;-71
2023/03/02 10:55:24;;;;;;;19.52;9.63;;;;;;;9.18;43.74;102302.09;4913232;28;113022;-71
2023/03/02 10:58:02;;;;;;;18.70;9.70;;;;;;;9.26;44.05;102310.75;4907995;28;124461;-71
2023/03/02 11:00:30;;;;;;;18.73;8.90;;;;;;;9.34;44.00;102306.19;4926432;28;123430;-71
2023/03/02 11:03:00;;;;;;;20.92;10.10;;;;;;;9.40;44.10;102300.84;4920512;28;114414;-71
2023/03/02 11:05:36;;;;;;;19.00;10.02;;;;;;;9.50;44.10;102305.06;4914182;28;114007;-71
2023/03/02 11:08:25;;;;;;;20.98;10.00;;;;;;;9.61;44.40;102296.09;4913971;28;124194;-71
2023/03/02 11:10:58;;;;;;;20.25;10.48;;;;;;;9.70;44.18;102296.78;4912836;28;123927;-71
2023/03/02 11:13:33;;;;;;;16.38;8.82;;;;;;;9.80;44.33;102300.13;4915619;28;114077;-71
2023/03/02 11:16:03;;;;;;;15.82;9.50;;;;;;;9.86;43.91;102289.44;4914697;28;113680;-71
2023/03/02 11:18:40;;;;;;;19.77;9.38;;;;;;;9.91;43.89;102290.22;4920191;28;124064;-71
2023/03/02 11:21:44;;;;;;;17.75;9.35;;;;;;;9.99;43.86;102291.84;4928459;28;124378;-71
2023/03/02 11:24:21;;;;;;;18.00;9.13;;;;;;;10.06;43.79;102282.91;4929140;28;114114;-71
2023/03/02 11:26:51;;;;;;;17.10;8.73;;;;;;;10.12;43.58;102280.13;4917856;28;113752;-71
2023/03/02 11:29:55;;;;;;;19.42;9.32;;;;;;;10.16;43.62;102273.84;4929939;28;123756;-71